Arrey, NM (87930)

1:24 AM MDT on July 26, 2016 (GMT -0600)
MesoWest | | Change Station

Elev 5270 ft 32.92 °N, 107.57 °W | Updated 29 minutes ago

Mostly Cloudy
Mostly Cloudy
80 °F
Feels Like 80 °F
N
15
Wind Variable Wind from NE
Gusts 23.0 mph

Today
High -- | Low -- °F
--% Chance of Precip.
Yesterday
High -- | Low -- °F
Precip. -- in
Pressure 29.91 in
Visibility 10.0 miles
Clouds Mostly Cloudy 10000 ft
Heat Index 80 °F
Dew Point 53 °F
Humidity 39%
Rainfall in
Snow Depth Not available.
6:19 AM 8:12 PM
Waning Gibbous, 57% visible
METAR KTCS 260653Z AUTO 03010KT 10SM BKN100 23/15 A3019 RMK AO2 RAE09 SLP127 P0000 T02330150 403610233 TSNO
Pressure 29.91 in
Visibility 10.0 miles
Clouds Mostly Cloudy 10000 ft
Heat Index 80 °F
Dew Point 53 °F
Humidity 39%
Rainfall in
Snow Depth Not available.
6:19 AM 8:12 PM
Waning Gibbous, 57% visible
METAR KTCS 260653Z AUTO 03010KT 10SM BKN100 23/15 A3019 RMK AO2 RAE09 SLP127 P0000 T02330150 403610233 TSNO

10-Day Weather Forecast

Almanac

Astronomy

Jul. 26, 2016 Rise Set
Actual Time
Civil Twilight
Nautical Twilight
Astronomical Twilight
Moon
Length of Visible Light
Length of Day
Tomorrow will be .
, % of the Moon is Illuminated

Today's Extremes

State Highs State Lows

Community

WunderPhotos

Upload Photos

1,927,552 photos uploaded!

WunderBlog® & News

Nearby

Air Quality

  Air Quality AQ Index Pollutant
Not available.

Snow Depth

Station Depth Elevation

Earthquake Activity

City Distance Mag. Time & Date
Minimum magnitude displayed is 2.5.

Coastal Water Temperatures

Place Temperature

Stations

Nearby Weather Stations

Station Location Temp. Windchill Dew Point Humidity Wind Precip. Elev Updated Type
                   

Watches & Warnings

There are currently no watches in effect.